sensor_id;sensor_type;location;lat;lon;timestamp;P1;durP1;ratioP1;P2;durP2;ratioP2
3249;SDS011;1637;42.020;23.992;2023-05-16T00:01:05;56.70;;;30.90;;
3249;SDS011;1637;42.020;23.992;2023-05-16T00:03:34;56.17;;;31.17;;
3249;SDS011;1637;42.020;23.992;2023-05-16T00:06:02;52.00;;;29.53;;
3249;SDS011;1637;42.020;23.992;2023-05-16T00:08:29;60.60;;;31.80;;
3249;SDS011;1637;42.020;23.992;2023-05-16T00:10:56;57.23;;;31.20;;
3249;SDS011;1637;42.020;23.992;2023-05-16T00:13:23;52.47;;;31.03;;
3249;SDS011;1637;42.020;23.992;2023-05-16T00:15:50;79.77;;;43.80;;
3249;SDS011;1637;42.020;23.992;2023-05-16T00:18:17;57.80;;;30.60;;
3249;SDS011;1637;42.020;23.992;2023-05-16T00:20:47;55.13;;;30.93;;
3249;SDS011;1637;42.020;23.992;2023-05-16T00:23:14;57.07;;;28.40;;
3249;SDS011;1637;42.020;23.992;2023-05-16T00:25:41;56.67;;;27.97;;
3249;SDS011;1637;42.020;23.992;2023-05-16T00:28:08;49.13;;;28.50;;
3249;SDS011;1637;42.020;23.992;2023-05-16T00:30:35;62.30;;;30.60;;
3249;SDS011;1637;42.020;23.992;2023-05-16T00:33:02;68.27;;;32.83;;
3249;SDS011;1637;42.020;23.992;2023-05-16T00:35:29;57.83;;;30.20;;
3249;SDS011;1637;42.020;23.992;2023-05-16T00:37:57;67.80;;;31.00;;
3249;SDS011;1637;42.020;23.992;2023-05-16T00:40:23;54.73;;;28.53;;
3249;SDS011;1637;42.020;23.992;2023-05-16T00:42:50;70.57;;;30.77;;
3249;SDS011;1637;42.020;23.992;2023-05-16T00:45:17;61.10;;;31.53;;
3249;SDS011;1637;42.020;23.992;2023-05-16T00:47:44;60.23;;;30.67;;
3249;SDS011;1637;42.020;23.992;2023-05-16T00:50:11;62.20;;;32.90;;
3249;SDS011;1637;42.020;23.992;2023-05-16T00:52:38;65.67;;;30.47;;
3249;SDS011;1637;42.020;23.992;2023-05-16T00:55:07;69.83;;;32.47;;
3249;SDS011;1637;42.020;23.992;2023-05-16T00:57:35;64.13;;;31.90;;
3249;SDS011;1637;42.020;23.992;2023-05-16T01:00:02;62.63;;;32.43;;
3249;SDS011;1637;42.020;23.992;2023-05-16T01:02:30;60.10;;;31.27;;
3249;SDS011;1637;42.020;23.992;2023-05-16T01:05:00;64.17;;;33.53;;
3249;SDS011;1637;42.020;23.992;2023-05-16T01:07:29;71.43;;;33.57;;
3249;SDS011;1637;42.020;23.992;2023-05-16T01:09:56;68.63;;;35.60;;
3249;SDS011;1637;42.020;23.992;2023-05-16T01:12:27;69.80;;;33.70;;
3249;SDS011;1637;42.020;23.992;2023-05-16T01:15:04;51.83;;;27.53;;
3249;SDS011;1637;42.020;23.992;2023-05-16T01:17:37;48.17;;;28.70;;
3249;SDS011;1637;42.020;23.992;2023-05-16T01:20:18;60.97;;;31.57;;
3249;SDS011;1637;42.020;23.992;2023-05-16T01:22:58;65.60;;;31.57;;
3249;SDS011;1637;42.020;23.992;2023-05-16T01:25:37;65.87;;;29.47;;
3249;SDS011;1637;42.020;23.992;2023-05-16T01:28:13;57.00;;;30.10;;
3249;SDS011;1637;42.020;23.992;2023-05-16T01:30:42;57.60;;;29.40;;
3249;SDS011;1637;42.020;23.992;2023-05-16T01:33:09;46.30;;;25.43;;
3249;SDS011;1637;42.020;23.992;2023-05-16T01:35:38;54.50;;;28.60;;
3249;SDS011;1637;42.020;23.992;2023-05-16T01:38:09;56.73;;;28.60;;
3249;SDS011;1637;42.020;23.992;2023-05-16T01:40:44;61.07;;;32.40;;
3249;SDS011;1637;42.020;23.992;2023-05-16T01:43:20;56.90;;;29.23;;
3249;SDS011;1637;42.020;23.992;2023-05-16T01:45:56;57.20;;;29.17;;
3249;SDS011;1637;42.020;23.992;2023-05-16T01:48:29;52.07;;;26.67;;
3249;SDS011;1637;42.020;23.992;2023-05-16T01:51:00;51.93;;;30.73;;
3249;SDS011;1637;42.020;23.992;2023-05-16T01:53:32;49.40;;;26.37;;
3249;SDS011;1637;42.020;23.992;2023-05-16T01:56:02;51.60;;;28.00;;
3249;SDS011;1637;42.020;23.992;2023-05-16T01:58:32;56.53;;;27.10;;
3249;SDS011;1637;42.020;23.992;2023-05-16T02:01:03;59.03;;;27.90;;
3249;SDS011;1637;42.020;23.992;2023-05-16T02:03:31;62.47;;;29.83;;
3249;SDS011;1637;42.020;23.992;2023-05-16T02:05:58;60.57;;;27.63;;
3249;SDS011;1637;42.020;23.992;2023-05-16T02:08:25;78.13;;;34.27;;
3249;SDS011;1637;42.020;23.992;2023-05-16T02:10:53;66.60;;;32.37;;
3249;SDS011;1637;42.020;23.992;2023-05-16T02:13:20;70.57;;;33.33;;
3249;SDS011;1637;42.020;23.992;2023-05-16T02:15:48;64.73;;;32.00;;
3249;SDS011;1637;42.020;23.992;2023-05-16T02:18:15;81.93;;;34.80;;
3249;SDS011;1637;42.020;23.992;2023-05-16T02:20:43;77.67;;;35.30;;
3249;SDS011;1637;42.020;23.992;2023-05-16T02:23:09;77.37;;;33.77;;
3249;SDS011;1637;42.020;23.992;2023-05-16T02:25:36;63.93;;;31.37;;
3249;SDS011;1637;42.020;23.992;2023-05-16T02:28:03;71.80;;;32.03;;
3249;SDS011;1637;42.020;23.992;2023-05-16T02:30:30;79.87;;;32.40;;
3249;SDS011;1637;42.020;23.992;2023-05-16T02:32:59;62.97;;;31.00;;
3249;SDS011;1637;42.020;23.992;2023-05-16T02:35:26;78.87;;;31.17;;
3249;SDS011;1637;42.020;23.992;2023-05-16T02:37:52;61.20;;;30.57;;
3249;SDS011;1637;42.020;23.992;2023-05-16T02:40:19;66.20;;;31.10;;
3249;SDS011;1637;42.020;23.992;2023-05-16T02:42:46;82.23;;;32.30;;
3249;SDS011;1637;42.020;23.992;2023-05-16T02:45:13;77.63;;;34.47;;
3249;SDS011;1637;42.020;23.992;2023-05-16T02:47:40;92.20;;;37.50;;
3249;SDS011;1637;42.020;23.992;2023-05-16T02:50:09;79.07;;;35.20;;
3249;SDS011;1637;42.020;23.992;2023-05-16T02:52:36;99.77;;;40.70;;
3249;SDS011;1637;42.020;23.992;2023-05-16T02:55:03;66.90;;;35.40;;
3249;SDS011;1637;42.020;23.992;2023-05-16T02:57:30;72.03;;;34.93;;
3249;SDS011;1637;42.020;23.992;2023-05-16T02:59:57;68.47;;;33.90;;
3249;SDS011;1637;42.020;23.992;2023-05-16T03:02:24;75.03;;;35.80;;
3249;SDS011;1637;42.020;23.992;2023-05-16T03:04:51;66.97;;;34.70;;
3249;SDS011;1637;42.020;23.992;2023-05-16T03:07:19;68.23;;;33.97;;
3249;SDS011;1637;42.020;23.992;2023-05-16T03:09:46;66.10;;;32.70;;
3249;SDS011;1637;42.020;23.992;2023-05-16T03:12:13;74.10;;;33.20;;
3249;SDS011;1637;42.020;23.992;2023-05-16T03:14:39;70.83;;;35.87;;
3249;SDS011;1637;42.020;23.992;2023-05-16T03:17:06;75.27;;;37.63;;
3249;SDS011;1637;42.020;23.992;2023-05-16T03:19:33;69.13;;;35.10;;
3249;SDS011;1637;42.020;23.992;2023-05-16T03:22:00;71.47;;;35.17;;
3249;SDS011;1637;42.020;23.992;2023-05-16T03:24:29;71.50;;;35.07;;
3249;SDS011;1637;42.020;23.992;2023-05-16T03:26:56;75.30;;;33.67;;
3249;SDS011;1637;42.020;23.992;2023-05-16T03:29:24;75.67;;;31.33;;
3249;SDS011;1637;42.020;23.992;2023-05-16T03:31:51;72.13;;;32.93;;
3249;SDS011;1637;42.020;23.992;2023-05-16T03:34:18;68.80;;;32.07;;
3249;SDS011;1637;42.020;23.992;2023-05-16T03:36:46;55.47;;;29.40;;
3249;SDS011;1637;42.020;23.992;2023-05-16T03:39:13;57.70;;;28.63;;
3249;SDS011;1637;42.020;23.992;2023-05-16T03:41:41;63.20;;;29.73;;
3249;SDS011;1637;42.020;23.992;2023-05-16T03:44:08;57.57;;;28.90;;
3249;SDS011;1637;42.020;23.992;2023-05-16T03:46:35;77.43;;;32.93;;
3249;SDS011;1637;42.020;23.992;2023-05-16T03:49:02;73.97;;;32.90;;
3249;SDS011;1637;42.020;23.992;2023-05-16T03:51:29;72.53;;;33.13;;
3249;SDS011;1637;42.020;23.992;2023-05-16T03:53:55;73.73;;;33.30;;
3249;SDS011;1637;42.020;23.992;2023-05-16T03:56:22;78.80;;;34.70;;
3249;SDS011;1637;42.020;23.992;2023-05-16T03:58:51;80.93;;;33.80;;
3249;SDS011;1637;42.020;23.992;2023-05-16T04:01:18;78.77;;;35.77;;
3249;SDS011;1637;42.020;23.992;2023-05-16T04:03:45;75.13;;;33.97;;
3249;SDS011;1637;42.020;23.992;2023-05-16T04:06:11;72.73;;;32.90;;
3249;SDS011;1637;42.020;23.992;2023-05-16T04:08:38;72.27;;;33.83;;
3249;SDS011;1637;42.020;23.992;2023-05-16T04:11:07;62.93;;;31.83;;
3249;SDS011;1637;42.020;23.992;2023-05-16T04:13:34;49.07;;;27.37;;
3249;SDS011;1637;42.020;23.992;2023-05-16T04:16:02;62.63;;;28.60;;
3249;SDS011;1637;42.020;23.992;2023-05-16T04:18:29;54.97;;;26.70;;
3249;SDS011;1637;42.020;23.992;2023-05-16T04:20:56;75.10;;;32.53;;
3249;SDS011;1637;42.020;23.992;2023-05-16T04:23:23;65.40;;;30.90;;
3249;SDS011;1637;42.020;23.992;2023-05-16T04:25:50;66.47;;;28.40;;
3249;SDS011;1637;42.020;23.992;2023-05-16T04:28:17;49.00;;;26.13;;
3249;SDS011;1637;42.020;23.992;2023-05-16T04:30:43;58.87;;;25.23;;
3249;SDS011;1637;42.020;23.992;2023-05-16T04:33:13;56.83;;;26.47;;
3249;SDS011;1637;42.020;23.992;2023-05-16T04:35:40;60.03;;;30.37;;
3249;SDS011;1637;42.020;23.992;2023-05-16T04:38:07;69.10;;;31.20;;
3249;SDS011;1637;42.020;23.992;2023-05-16T04:40:34;75.30;;;33.07;;
3249;SDS011;1637;42.020;23.992;2023-05-16T04:43:01;85.90;;;38.10;;
3249;SDS011;1637;42.020;23.992;2023-05-16T04:45:27;107.33;;;35.50;;
3249;SDS011;1637;42.020;23.992;2023-05-16T04:47:54;73.00;;;34.10;;
3249;SDS011;1637;42.020;23.992;2023-05-16T04:50:23;70.90;;;33.50;;
3249;SDS011;1637;42.020;23.992;2023-05-16T04:52:50;115.17;;;66.33;;
3249;SDS011;1637;42.020;23.992;2023-05-16T04:55:17;108.93;;;51.87;;
3249;SDS011;1637;42.020;23.992;2023-05-16T04:57:43;88.00;;;42.90;;
3249;SDS011;1637;42.020;23.992;2023-05-16T05:00:11;77.00;;;35.17;;
3249;SDS011;1637;42.020;23.992;2023-05-16T05:02:38;74.57;;;33.00;;
3249;SDS011;1637;42.020;23.992;2023-05-16T05:05:06;117.73;;;57.03;;
3249;SDS011;1637;42.020;23.992;2023-05-16T05:07:35;95.10;;;39.50;;
3249;SDS011;1637;42.020;23.992;2023-05-16T05:10:01;175.93;;;87.00;;
3249;SDS011;1637;42.020;23.992;2023-05-16T05:12:31;82.87;;;35.43;;
3249;SDS011;1637;42.020;23.992;2023-05-16T05:14:57;77.10;;;36.20;;
3249;SDS011;1637;42.020;23.992;2023-05-16T05:17:24;123.43;;;60.93;;
3249;SDS011;1637;42.020;23.992;2023-05-16T05:19:51;84.47;;;45.47;;
3249;SDS011;1637;42.020;23.992;2023-05-16T05:22:18;75.60;;;38.10;;
3249;SDS011;1637;42.020;23.992;2023-05-16T05:24:46;98.60;;;38.50;;
3249;SDS011;1637;42.020;23.992;2023-05-16T05:27:13;81.63;;;35.70;;
3249;SDS011;1637;42.020;23.992;2023-05-16T05:29:40;77.30;;;37.87;;
3249;SDS011;1637;42.020;23.992;2023-05-16T05:32:06;93.83;;;40.40;;
3249;SDS011;1637;42.020;23.992;2023-05-16T05:34:33;79.50;;;37.50;;
3249;SDS011;1637;42.020;23.992;2023-05-16T05:37:00;94.07;;;41.30;;
3249;SDS011;1637;42.020;23.992;2023-05-16T05:39:27;69.40;;;35.07;;
3249;SDS011;1637;42.020;23.992;2023-05-16T05:41:55;47.30;;;24.77;;
3249;SDS011;1637;42.020;23.992;2023-05-16T05:44:22;56.80;;;25.67;;
3249;SDS011;1637;42.020;23.992;2023-05-16T05:46:49;41.00;;;24.13;;
3249;SDS011;1637;42.020;23.992;2023-05-16T05:49:16;38.30;;;21.80;;
3249;SDS011;1637;42.020;23.992;2023-05-16T05:51:43;83.67;;;31.97;;
3249;SDS011;1637;42.020;23.992;2023-05-16T05:54:10;88.93;;;32.60;;
3249;SDS011;1637;42.020;23.992;2023-05-16T05:56:37;70.30;;;36.60;;
3249;SDS011;1637;42.020;23.992;2023-05-16T05:59:05;81.20;;;41.13;;
3249;SDS011;1637;42.020;23.992;2023-05-16T06:01:32;76.33;;;36.70;;
3249;SDS011;1637;42.020;23.992;2023-05-16T06:03:59;76.57;;;35.67;;
3249;SDS011;1637;42.020;23.992;2023-05-16T06:06:26;82.73;;;41.83;;
3249;SDS011;1637;42.020;23.992;2023-05-16T06:08:53;55.17;;;27.53;;
3249;SDS011;1637;42.020;23.992;2023-05-16T06:11:20;50.97;;;28.97;;
3249;SDS011;1637;42.020;23.992;2023-05-16T06:13:47;65.83;;;29.00;;
3249;SDS011;1637;42.020;23.992;2023-05-16T06:16:15;66.23;;;31.77;;
3249;SDS011;1637;42.020;23.992;2023-05-16T06:18:42;67.47;;;30.53;;
3249;SDS011;1637;42.020;23.992;2023-05-16T06:21:09;65.73;;;35.23;;
3249;SDS011;1637;42.020;23.992;2023-05-16T06:23:35;76.77;;;32.80;;
3249;SDS011;1637;42.020;23.992;2023-05-16T06:26:02;82.37;;;45.23;;
3249;SDS011;1637;42.020;23.992;2023-05-16T06:28:29;62.83;;;30.07;;
3249;SDS011;1637;42.020;23.992;2023-05-16T06:30:56;83.13;;;44.90;;
3249;SDS011;1637;42.020;23.992;2023-05-16T06:33:24;52.97;;;28.30;;
3249;SDS011;1637;42.020;23.992;2023-05-16T06:35:51;58.70;;;30.20;;
3249;SDS011;1637;42.020;23.992;2023-05-16T06:38:18;75.17;;;31.83;;
3249;SDS011;1637;42.020;23.992;2023-05-16T06:40:45;74.20;;;34.13;;
3249;SDS011;1637;42.020;23.992;2023-05-16T06:43:12;93.07;;;45.67;;
3249;SDS011;1637;42.020;23.992;2023-05-16T06:45:39;104.37;;;49.70;;
3249;SDS011;1637;42.020;23.992;2023-05-16T06:48:06;83.63;;;39.80;;
3249;SDS011;1637;42.020;23.992;2023-05-16T06:50:35;74.60;;;43.47;;
3249;SDS011;1637;42.020;23.992;2023-05-16T06:53:01;78.23;;;32.97;;
3249;SDS011;1637;42.020;23.992;2023-05-16T06:55:29;73.83;;;36.80;;
3249;SDS011;1637;42.020;23.992;2023-05-16T06:57:56;56.13;;;30.77;;
3249;SDS011;1637;42.020;23.992;2023-05-16T07:00:22;49.47;;;27.17;;
3249;SDS011;1637;42.020;23.992;2023-05-16T07:02:49;46.60;;;27.20;;
3249;SDS011;1637;42.020;23.992;2023-05-16T07:05:16;53.63;;;27.27;;
3249;SDS011;1637;42.020;23.992;2023-05-16T07:07:45;62.30;;;33.70;;
3249;SDS011;1637;42.020;23.992;2023-05-16T07:10:13;71.90;;;36.87;;
3249;SDS011;1637;42.020;23.992;2023-05-16T07:12:40;66.20;;;31.17;;
3249;SDS011;1637;42.020;23.992;2023-05-16T07:15:08;56.53;;;27.83;;
3249;SDS011;1637;42.020;23.992;2023-05-16T07:17:36;53.37;;;28.07;;
3249;SDS011;1637;42.020;23.992;2023-05-16T07:20:03;55.17;;;29.57;;
3249;SDS011;1637;42.020;23.992;2023-05-16T07:22:30;49.30;;;25.77;;
3249;SDS011;1637;42.020;23.992;2023-05-16T07:24:58;44.80;;;23.20;;
3249;SDS011;1637;42.020;23.992;2023-05-16T07:27:25;36.93;;;22.20;;
3249;SDS011;1637;42.020;23.992;2023-05-16T07:29:52;65.90;;;28.77;;
3249;SDS011;1637;42.020;23.992;2023-05-16T07:32:19;48.20;;;26.37;;
3249;SDS011;1637;42.020;23.992;2023-05-16T07:34:46;48.27;;;23.53;;
3249;SDS011;1637;42.020;23.992;2023-05-16T07:37:13;75.47;;;30.40;;
3249;SDS011;1637;42.020;23.992;2023-05-16T07:39:40;36.33;;;21.20;;
3249;SDS011;1637;42.020;23.992;2023-05-16T07:42:08;47.47;;;23.57;;
3249;SDS011;1637;42.020;23.992;2023-05-16T07:44:36;33.40;;;19.90;;
3249;SDS011;1637;42.020;23.992;2023-05-16T07:47:02;66.03;;;25.60;;
3249;SDS011;1637;42.020;23.992;2023-05-16T07:49:30;40.67;;;21.10;;
3249;SDS011;1637;42.020;23.992;2023-05-16T07:51:57;46.90;;;21.20;;
3249;SDS011;1637;42.020;23.992;2023-05-16T07:54:24;30.33;;;18.53;;
3249;SDS011;1637;42.020;23.992;2023-05-16T07:56:50;30.83;;;19.00;;
3249;SDS011;1637;42.020;23.992;2023-05-16T07:59:19;36.43;;;20.17;;
3249;SDS011;1637;42.020;23.992;2023-05-16T08:01:46;35.30;;;18.30;;
3249;SDS011;1637;42.020;23.992;2023-05-16T08:04:12;29.23;;;17.70;;
3249;SDS011;1637;42.020;23.992;2023-05-16T08:06:39;49.17;;;21.53;;
3249;SDS011;1637;42.020;23.992;2023-05-16T08:09:06;40.07;;;20.97;;
3249;SDS011;1637;42.020;23.992;2023-05-16T08:11:33;37.53;;;20.60;;
3249;SDS011;1637;42.020;23.992;2023-05-16T08:14:02;46.97;;;21.10;;
3249;SDS011;1637;42.020;23.992;2023-05-16T08:16:30;40.70;;;21.20;;
3249;SDS011;1637;42.020;23.992;2023-05-16T08:18:57;36.90;;;20.83;;
3249;SDS011;1637;42.020;23.992;2023-05-16T08:21:24;34.30;;;21.27;;
3249;SDS011;1637;42.020;23.992;2023-05-16T08:23:51;37.93;;;21.07;;
3249;SDS011;1637;42.020;23.992;2023-05-16T08:26:17;38.03;;;19.07;;
3249;SDS011;1637;42.020;23.992;2023-05-16T08:28:46;42.17;;;18.73;;
3249;SDS011;1637;42.020;23.992;2023-05-16T08:31:13;35.03;;;17.47;;
3249;SDS011;1637;42.020;23.992;2023-05-16T08:33:41;23.07;;;15.43;;
3249;SDS011;1637;42.020;23.992;2023-05-16T08:36:08;21.50;;;15.37;;
3249;SDS011;1637;42.020;23.992;2023-05-16T08:38:35;44.50;;;16.77;;
3249;SDS011;1637;42.020;23.992;2023-05-16T08:41:02;28.47;;;15.63;;
3249;SDS011;1637;42.020;23.992;2023-05-16T08:43:29;24.63;;;12.87;;
3249;SDS011;1637;42.020;23.992;2023-05-16T08:45:57;34.93;;;16.40;;
3249;SDS011;1637;42.020;23.992;2023-05-16T08:48:24;24.73;;;15.27;;
3249;SDS011;1637;42.020;23.992;2023-05-16T08:50:55;35.20;;;13.17;;
3249;SDS011;1637;42.020;23.992;2023-05-16T08:53:25;26.23;;;13.90;;
3249;SDS011;1637;42.020;23.992;2023-05-16T08:55:57;23.13;;;15.30;;
3249;SDS011;1637;42.020;23.992;2023-05-16T08:58:25;22.17;;;12.60;;
3249;SDS011;1637;42.020;23.992;2023-05-16T09:00:52;24.80;;;13.47;;
3249;SDS011;1637;42.020;23.992;2023-05-16T09:03:20;24.33;;;12.10;;
3249;SDS011;1637;42.020;23.992;2023-05-16T09:05:49;19.13;;;10.47;;
3249;SDS011;1637;42.020;23.992;2023-05-16T09:08:18;22.23;;;10.53;;
3249;SDS011;1637;42.020;23.992;2023-05-16T09:10:45;34.73;;;13.07;;
3249;SDS011;1637;42.020;23.992;2023-05-16T09:13:12;13.47;;;7.80;;
3249;SDS011;1637;42.020;23.992;2023-05-16T09:15:39;12.60;;;7.97;;
3249;SDS011;1637;42.020;23.992;2023-05-16T09:18:10;15.23;;;8.27;;
3249;SDS011;1637;42.020;23.992;2023-05-16T09:20:37;23.63;;;9.60;;
3249;SDS011;1637;42.020;23.992;2023-05-16T09:23:11;11.47;;;7.50;;
3249;SDS011;1637;42.020;23.992;2023-05-16T09:25:39;13.03;;;8.50;;
3249;SDS011;1637;42.020;23.992;2023-05-16T09:28:08;31.77;;;9.80;;
3249;SDS011;1637;42.020;23.992;2023-05-16T09:30:37;14.20;;;7.90;;
3249;SDS011;1637;42.020;23.992;2023-05-16T09:33:05;21.77;;;9.83;;
3249;SDS011;1637;42.020;23.992;2023-05-16T09:35:32;95.43;;;45.40;;
3249;SDS011;1637;42.020;23.992;2023-05-16T09:37:59;22.37;;;13.00;;
3249;SDS011;1637;42.020;23.992;2023-05-16T09:40:26;24.40;;;10.70;;
3249;SDS011;1637;42.020;23.992;2023-05-16T09:43:00;31.70;;;12.07;;
3249;SDS011;1637;42.020;23.992;2023-05-16T09:45:29;21.50;;;10.90;;
3249;SDS011;1637;42.020;23.992;2023-05-16T09:48:00;25.10;;;12.00;;
3249;SDS011;1637;42.020;23.992;2023-05-16T09:50:30;20.20;;;14.20;;
3249;SDS011;1637;42.020;23.992;2023-05-16T09:52:58;29.43;;;13.63;;
3249;SDS011;1637;42.020;23.992;2023-05-16T09:55:25;29.13;;;14.60;;
3249;SDS011;1637;42.020;23.992;2023-05-16T09:57:52;28.20;;;15.20;;
3249;SDS011;1637;42.020;23.992;2023-05-16T10:00:20;24.13;;;15.03;;
3249;SDS011;1637;42.020;23.992;2023-05-16T10:02:47;44.33;;;16.10;;
3249;SDS011;1637;42.020;23.992;2023-05-16T10:05:16;27.13;;;16.90;;
3249;SDS011;1637;42.020;23.992;2023-05-16T10:07:42;24.53;;;13.23;;
3249;SDS011;1637;42.020;23.992;2023-05-16T10:10:10;25.60;;;16.77;;
3249;SDS011;1637;42.020;23.992;2023-05-16T10:12:39;33.40;;;20.77;;
3249;SDS011;1637;42.020;23.992;2023-05-16T10:15:07;48.13;;;15.50;;
3249;SDS011;1637;42.020;23.992;2023-05-16T10:17:37;47.63;;;16.40;;
3249;SDS011;1637;42.020;23.992;2023-05-16T10:20:06;46.10;;;23.60;;
3249;SDS011;1637;42.020;23.992;2023-05-16T10:22:35;34.13;;;15.10;;
3249;SDS011;1637;42.020;23.992;2023-05-16T10:25:08;39.53;;;18.10;;
3249;SDS011;1637;42.020;23.992;2023-05-16T10:27:41;47.57;;;23.27;;
3249;SDS011;1637;42.020;23.992;2023-05-16T10:30:09;23.07;;;16.33;;
3249;SDS011;1637;42.020;23.992;2023-05-16T10:32:37;40.40;;;23.60;;
3249;SDS011;1637;42.020;23.992;2023-05-16T10:35:05;36.00;;;17.80;;
3249;SDS011;1637;42.020;23.992;2023-05-16T10:37:33;32.87;;;16.17;;
3249;SDS011;1637;42.020;23.992;2023-05-16T10:40:01;44.00;;;17.53;;
3249;SDS011;1637;42.020;23.992;2023-05-16T10:42:30;31.33;;;17.80;;
3249;SDS011;1637;42.020;23.992;2023-05-16T10:45:05;33.90;;;16.33;;
3249;SDS011;1637;42.020;23.992;2023-05-16T10:47:34;34.70;;;17.70;;
3249;SDS011;1637;42.020;23.992;2023-05-16T10:50:03;34.10;;;17.47;;
3249;SDS011;1637;42.020;23.992;2023-05-16T10:52:31;36.30;;;16.93;;
3249;SDS011;1637;42.020;23.992;2023-05-16T10:54:58;25.37;;;14.30;;
3249;SDS011;1637;42.020;23.992;2023-05-16T10:57:28;36.77;;;16.50;;
3249;SDS011;1637;42.020;23.992;2023-05-16T11:00:00;24.80;;;14.50;;
3249;SDS011;1637;42.020;23.992;2023-05-16T11:02:28;39.40;;;21.80;;
3249;SDS011;1637;42.020;23.992;2023-05-16T11:04:58;24.50;;;15.40;;
3249;SDS011;1637;42.020;23.992;2023-05-16T11:07:30;31.77;;;15.00;;
3249;SDS011;1637;42.020;23.992;2023-05-16T11:10:03;23.27;;;14.00;;
3249;SDS011;1637;42.020;23.992;2023-05-16T11:12:42;37.30;;;14.73;;
3249;SDS011;1637;42.020;23.992;2023-05-16T11:15:17;25.50;;;14.20;;
3249;SDS011;1637;42.020;23.992;2023-05-16T11:17:45;46.53;;;17.10;;
3249;SDS011;1637;42.020;23.992;2023-05-16T11:20:23;29.53;;;13.77;;
3249;SDS011;1637;42.020;23.992;2023-05-16T11:22:55;26.87;;;13.80;;
3249;SDS011;1637;42.020;23.992;2023-05-16T11:25:52;30.07;;;14.40;;
3249;SDS011;1637;42.020;23.992;2023-05-16T11:28:20;39.17;;;15.20;;
3249;SDS011;1637;42.020;23.992;2023-05-16T11:30:48;32.83;;;16.90;;
3249;SDS011;1637;42.020;23.992;2023-05-16T11:33:16;29.17;;;15.47;;
3249;SDS011;1637;42.020;23.992;2023-05-16T11:35:49;25.70;;;14.90;;
3249;SDS011;1637;42.020;23.992;2023-05-16T11:38:28;30.33;;;16.50;;
3249;SDS011;1637;42.020;23.992;2023-05-16T11:41:00;124.67;;;94.23;;
3249;SDS011;1637;42.020;23.992;2023-05-16T11:43:28;37.63;;;19.20;;
3249;SDS011;1637;42.020;23.992;2023-05-16T11:45:55;30.70;;;19.13;;
3249;SDS011;1637;42.020;23.992;2023-05-16T11:48:22;36.57;;;19.80;;
3249;SDS011;1637;42.020;23.992;2023-05-16T11:50:50;39.67;;;20.07;;
3249;SDS011;1637;42.020;23.992;2023-05-16T11:53:17;39.70;;;18.73;;
3249;SDS011;1637;42.020;23.992;2023-05-16T11:55:47;33.00;;;19.37;;
3249;SDS011;1637;42.020;23.992;2023-05-16T11:58:16;29.30;;;18.03;;
3249;SDS011;1637;42.020;23.992;2023-05-16T12:00:46;30.50;;;18.03;;
3249;SDS011;1637;42.020;23.992;2023-05-16T12:03:14;31.60;;;19.47;;
3249;SDS011;1637;42.020;23.992;2023-05-16T12:05:48;40.97;;;21.10;;
3249;SDS011;1637;42.020;23.992;2023-05-16T12:08:17;33.33;;;19.43;;
3249;SDS011;1637;42.020;23.992;2023-05-16T12:10:44;27.97;;;18.00;;
3249;SDS011;1637;42.020;23.992;2023-05-16T12:13:12;28.23;;;18.13;;
3249;SDS011;1637;42.020;23.992;2023-05-16T12:15:40;32.47;;;18.00;;
3249;SDS011;1637;42.020;23.992;2023-05-16T12:18:07;39.70;;;21.80;;
3249;SDS011;1637;42.020;23.992;2023-05-16T12:20:34;37.00;;;20.70;;
3249;SDS011;1637;42.020;23.992;2023-05-16T12:23:01;39.47;;;22.50;;
3249;SDS011;1637;42.020;23.992;2023-05-16T12:25:29;34.77;;;20.53;;
3249;SDS011;1637;42.020;23.992;2023-05-16T12:27:57;32.87;;;21.03;;
3249;SDS011;1637;42.020;23.992;2023-05-16T12:30:27;30.00;;;15.70;;
3249;SDS011;1637;42.020;23.992;2023-05-16T12:32:55;45.50;;;25.57;;
3249;SDS011;1637;42.020;23.992;2023-05-16T12:35:23;76.13;;;29.37;;
3249;SDS011;1637;42.020;23.992;2023-05-16T12:37:50;53.57;;;26.67;;
3249;SDS011;1637;42.020;23.992;2023-05-16T12:40:18;64.90;;;27.40;;
3249;SDS011;1637;42.020;23.992;2023-05-16T12:42:45;57.03;;;24.40;;
3249;SDS011;1637;42.020;23.992;2023-05-16T12:45:15;33.17;;;20.70;;
3249;SDS011;1637;42.020;23.992;2023-05-16T12:47:43;32.60;;;20.17;;
3249;SDS011;1637;42.020;23.992;2023-05-16T12:50:11;43.03;;;22.33;;
3249;SDS011;1637;42.020;23.992;2023-05-16T12:52:46;41.07;;;20.50;;
3249;SDS011;1637;42.020;23.992;2023-05-16T12:55:15;40.60;;;23.40;;
3249;SDS011;1637;42.020;23.992;2023-05-16T12:57:42;42.33;;;17.50;;
3249;SDS011;1637;42.020;23.992;2023-05-16T13:00:12;27.70;;;12.60;;
3249;SDS011;1637;42.020;23.992;2023-05-16T13:02:40;28.83;;;11.30;;
3249;SDS011;1637;42.020;23.992;2023-05-16T13:05:08;36.17;;;14.03;;
3249;SDS011;1637;42.020;23.992;2023-05-16T13:07:35;39.03;;;15.53;;
3249;SDS011;1637;42.020;23.992;2023-05-16T13:10:06;43.50;;;16.57;;
3249;SDS011;1637;42.020;23.992;2023-05-16T13:12:34;42.83;;;15.87;;
3249;SDS011;1637;42.020;23.992;2023-05-16T13:15:01;37.67;;;20.07;;
3249;SDS011;1637;42.020;23.992;2023-05-16T13:17:28;41.93;;;19.37;;
3249;SDS011;1637;42.020;23.992;2023-05-16T13:19:55;75.67;;;29.00;;
3249;SDS011;1637;42.020;23.992;2023-05-16T13:22:23;49.70;;;20.93;;
3249;SDS011;1637;42.020;23.992;2023-05-16T13:24:50;50.57;;;20.37;;
3249;SDS011;1637;42.020;23.992;2023-05-16T13:27:17;41.43;;;22.33;;
3249;SDS011;1637;42.020;23.992;2023-05-16T13:29:44;45.67;;;20.50;;
3249;SDS011;1637;42.020;23.992;2023-05-16T13:32:10;32.37;;;17.10;;
3249;SDS011;1637;42.020;23.992;2023-05-16T13:34:37;66.07;;;29.40;;
3249;SDS011;1637;42.020;23.992;2023-05-16T13:37:04;50.73;;;26.80;;
3249;SDS011;1637;42.020;23.992;2023-05-16T13:39:32;43.27;;;19.17;;
3249;SDS011;1637;42.020;23.992;2023-05-16T13:42:00;52.60;;;23.57;;
3249;SDS011;1637;42.020;23.992;2023-05-16T13:44:27;35.90;;;14.70;;
3249;SDS011;1637;42.020;23.992;2023-05-16T13:46:54;67.33;;;38.00;;
3249;SDS011;1637;42.020;23.992;2023-05-16T13:49:22;37.63;;;15.87;;
3249;SDS011;1637;42.020;23.992;2023-05-16T13:51:48;48.30;;;18.43;;
3249;SDS011;1637;42.020;23.992;2023-05-16T13:54:16;40.37;;;20.30;;
3249;SDS011;1637;42.020;23.992;2023-05-16T13:56:44;36.30;;;19.57;;
3249;SDS011;1637;42.020;23.992;2023-05-16T13:59:11;46.93;;;22.40;;
3249;SDS011;1637;42.020;23.992;2023-05-16T14:01:38;57.80;;;19.60;;
3249;SDS011;1637;42.020;23.992;2023-05-16T14:04:05;19.53;;;6.00;;
3249;SDS011;1637;42.020;23.992;2023-05-16T14:06:32;33.53;;;6.43;;
3249;SDS011;1637;42.020;23.992;2023-05-16T14:08:59;18.83;;;5.73;;
3249;SDS011;1637;42.020;23.992;2023-05-16T14:11:26;25.23;;;7.10;;
3249;SDS011;1637;42.020;23.992;2023-05-16T14:13:54;21.70;;;7.90;;
3249;SDS011;1637;42.020;23.992;2023-05-16T14:16:21;11.90;;;2.93;;
3249;SDS011;1637;42.020;23.992;2023-05-16T14:18:48;22.33;;;5.53;;
3249;SDS011;1637;42.020;23.992;2023-05-16T14:21:15;31.63;;;9.37;;
3249;SDS011;1637;42.020;23.992;2023-05-16T14:23:42;34.90;;;12.37;;
3249;SDS011;1637;42.020;23.992;2023-05-16T14:26:08;32.97;;;9.57;;
3249;SDS011;1637;42.020;23.992;2023-05-16T14:28:35;40.97;;;14.80;;
3249;SDS011;1637;42.020;23.992;2023-05-16T14:31:03;17.07;;;5.83;;
3249;SDS011;1637;42.020;23.992;2023-05-16T14:33:31;27.07;;;11.70;;
3249;SDS011;1637;42.020;23.992;2023-05-16T14:35:57;36.77;;;17.13;;
3249;SDS011;1637;42.020;23.992;2023-05-16T14:38:24;17.90;;;4.67;;
3249;SDS011;1637;42.020;23.992;2023-05-16T14:40:52;35.73;;;20.47;;